createdAt,value
2023-05-23T00:01:55.224Z,19.00
2023-05-23T00:04:22.568Z,19.05
2023-05-23T00:06:50.700Z,19.09
2023-05-23T00:09:18.023Z,19.13
2023-05-23T00:11:45.941Z,19.16
2023-05-23T00:14:14.974Z,19.21
2023-05-23T00:16:44.740Z,19.23
2023-05-23T00:19:15.217Z,19.23
2023-05-23T00:21:56.828Z,19.21
2023-05-23T00:24:24.475Z,19.16
2023-05-23T00:26:51.558Z,19.14
2023-05-23T00:29:19.626Z,19.14
2023-05-23T00:31:47.474Z,19.15
2023-05-23T00:34:17.528Z,19.18
2023-05-23T00:36:47.425Z,19.21
2023-05-23T00:39:20.792Z,19.22
2023-05-23T00:41:52.730Z,19.19
2023-05-23T00:44:21.671Z,19.14
2023-05-23T00:46:57.687Z,19.07
2023-05-23T00:49:28.156Z,19.02
2023-05-23T00:51:55.979Z,18.95
2023-05-23T00:54:29.572Z,18.92
2023-05-23T00:56:57.581Z,18.84
2023-05-23T00:59:26.364Z,18.79
2023-05-23T01:01:56.648Z,18.74
2023-05-23T01:04:28.159Z,18.69
2023-05-23T01:06:56.398Z,18.63
2023-05-23T01:09:27.308Z,18.58
2023-05-23T01:12:15.844Z,18.53
2023-05-23T01:15:06.545Z,18.45
2023-05-23T01:18:12.321Z,18.41
2023-05-23T01:20:49.016Z,18.42
2023-05-23T01:23:55.761Z,18.42
2023-05-23T01:27:17.717Z,18.43
2023-05-23T01:29:50.426Z,18.45
2023-05-23T01:32:19.126Z,18.51
2023-05-23T01:34:48.265Z,18.56
2023-05-23T01:37:18.598Z,18.57
2023-05-23T01:39:46.798Z,18.61
2023-05-23T01:42:15.864Z,18.61
2023-05-23T01:44:45.436Z,18.63
2023-05-23T01:47:14.421Z,18.64
2023-05-23T01:49:44.878Z,18.65
2023-05-23T01:52:13.298Z,18.66
2023-05-23T01:54:42.433Z,18.69
2023-05-23T01:57:11.944Z,18.70
2023-05-23T01:59:39.180Z,18.70
2023-05-23T02:02:06.559Z,18.72
2023-05-23T02:04:34.014Z,18.72
2023-05-23T02:07:01.189Z,18.72
2023-05-23T02:09:28.265Z,18.70
2023-05-23T02:11:55.542Z,18.68
2023-05-23T02:14:23.912Z,18.66
2023-05-23T02:16:52.754Z,18.68
2023-05-23T02:19:20.845Z,18.67
2023-05-23T02:21:47.942Z,18.69
2023-05-23T02:24:15.016Z,18.70
2023-05-23T02:26:42.172Z,18.70
2023-05-23T02:29:09.214Z,18.72
2023-05-23T02:31:36.792Z,18.70
2023-05-23T02:34:03.949Z,18.73
2023-05-23T02:36:33.269Z,18.74
2023-05-23T02:39:00.437Z,18.74
2023-05-23T02:41:27.549Z,18.74
2023-05-23T02:43:55.006Z,18.75
2023-05-23T02:46:22.159Z,18.76
2023-05-23T02:48:49.301Z,18.77
2023-05-23T02:51:16.358Z,18.76
2023-05-23T02:53:43.446Z,18.74
2023-05-23T02:56:11.602Z,18.73
2023-05-23T02:58:39.872Z,18.73
2023-05-23T03:01:08.334Z,18.72
2023-05-23T03:03:36.594Z,18.69
2023-05-23T03:06:06.801Z,18.69
2023-05-23T03:08:33.876Z,18.68
2023-05-23T03:11:01.061Z,18.67
2023-05-23T03:13:28.975Z,18.67
2023-05-23T03:15:56.302Z,18.67
2023-05-23T03:18:23.563Z,18.65
2023-05-23T03:20:50.756Z,18.65
2023-05-23T03:23:17.935Z,18.63
2023-05-23T03:25:45.655Z,18.62
2023-05-23T03:28:12.975Z,18.62
2023-05-23T03:30:40.117Z,18.61
2023-05-23T03:33:07.561Z,18.60
2023-05-23T03:35:35.019Z,18.58
2023-05-23T03:38:02.405Z,18.56
2023-05-23T03:40:29.650Z,18.55
2023-05-23T03:43:07.207Z,18.54
2023-05-23T03:45:36.884Z,18.53
2023-05-23T03:48:11.082Z,18.53
2023-05-23T03:50:38.506Z,18.51
2023-05-23T03:53:07.344Z,18.50
2023-05-23T03:55:34.706Z,18.49
2023-05-23T03:58:02.375Z,18.48
2023-05-23T04:00:29.643Z,18.48
2023-05-23T04:02:59.327Z,18.48
2023-05-23T04:05:27.028Z,18.46
2023-05-23T04:07:54.238Z,18.44
2023-05-23T04:10:21.448Z,18.45
2023-05-23T04:12:48.747Z,18.45
2023-05-23T04:15:18.183Z,18.44
2023-05-23T04:18:11.625Z,18.36
2023-05-23T04:20:38.950Z,18.35
2023-05-23T04:23:06.030Z,18.32
2023-05-23T04:25:36.339Z,18.32
2023-05-23T04:28:14.090Z,18.30
2023-05-23T04:30:42.606Z,18.30
2023-05-23T04:33:10.163Z,18.30
2023-05-23T04:35:40.726Z,18.29
2023-05-23T04:38:08.459Z,18.30
2023-05-23T04:40:36.091Z,18.30
2023-05-23T04:43:43.311Z,18.28
2023-05-23T04:46:30.603Z,18.26
2023-05-23T04:49:11.117Z,18.28
2023-05-23T04:51:38.697Z,18.29
2023-05-23T04:54:21.742Z,18.29
2023-05-23T04:56:49.065Z,18.31
2023-05-23T04:59:18.765Z,18.33
2023-05-23T05:01:45.831Z,18.35
2023-05-23T05:04:14.151Z,18.40
2023-05-23T05:06:41.966Z,18.44
2023-05-23T05:09:09.759Z,18.45
2023-05-23T05:11:36.796Z,18.50
2023-05-23T05:14:03.803Z,18.52
2023-05-23T05:16:30.849Z,18.56
2023-05-23T05:18:58.107Z,18.59
2023-05-23T05:21:25.256Z,18.61
2023-05-23T05:23:52.762Z,18.64
2023-05-23T05:26:19.875Z,18.65
2023-05-23T05:28:49.252Z,18.68
2023-05-23T05:31:16.282Z,18.70
2023-05-23T05:33:45.902Z,18.71
2023-05-23T05:36:14.874Z,18.74
2023-05-23T05:38:42.229Z,18.75
2023-05-23T05:41:09.602Z,18.78
2023-05-23T05:43:40.537Z,18.81
2023-05-23T05:46:07.834Z,18.84
2023-05-23T05:48:35.622Z,18.84
2023-05-23T05:51:06.975Z,18.86
2023-05-23T05:53:34.832Z,18.88
2023-05-23T05:56:02.581Z,18.89
2023-05-23T05:58:30.799Z,18.92
2023-05-23T06:01:01.510Z,18.94
2023-05-23T06:03:29.138Z,18.97
2023-05-23T06:05:57.342Z,18.99
2023-05-23T06:08:24.410Z,19.01
2023-05-23T06:10:52.021Z,19.02
2023-05-23T06:13:19.019Z,19.03
2023-05-23T06:15:51.877Z,19.02
2023-05-23T06:18:19.269Z,19.02
2023-05-23T06:20:46.337Z,19.05
2023-05-23T06:23:16.460Z,19.05
2023-05-23T06:25:45.200Z,19.07
2023-05-23T06:28:13.183Z,19.12
2023-05-23T06:30:40.532Z,19.17
2023-05-23T06:33:08.738Z,19.21
2023-05-23T06:35:36.247Z,19.24
2023-05-23T06:38:03.371Z,19.27
2023-05-23T06:40:30.481Z,19.29
2023-05-23T06:42:57.515Z,19.32
2023-05-23T06:45:54.406Z,19.36
2023-05-23T06:48:21.569Z,19.36
2023-05-23T06:50:49.609Z,19.39
2023-05-23T06:53:19.084Z,19.39
2023-05-23T06:55:47.466Z,19.39
2023-05-23T06:58:17.795Z,19.41
2023-05-23T07:00:44.915Z,19.44
2023-05-23T07:03:32.758Z,19.43
2023-05-23T07:06:08.243Z,19.45
2023-05-23T07:08:35.676Z,19.49
2023-05-23T07:11:06.310Z,19.48
2023-05-23T07:13:39.115Z,19.51
2023-05-23T07:16:06.673Z,19.54
2023-05-23T07:18:38.661Z,19.57
2023-05-23T07:21:06.253Z,19.57
2023-05-23T07:23:36.910Z,19.59
2023-05-23T07:26:04.925Z,19.60
2023-05-23T07:28:40.648Z,19.62
2023-05-23T07:31:09.938Z,19.60
2023-05-23T07:33:38.134Z,19.62
2023-05-23T07:36:07.153Z,19.60
2023-05-23T07:38:34.310Z,19.56
2023-05-23T07:41:10.554Z,19.55
2023-05-23T07:43:39.197Z,19.51
2023-05-23T07:46:06.853Z,19.47
2023-05-23T07:48:34.040Z,19.45
2023-05-23T07:51:01.528Z,19.42
2023-05-23T07:53:29.234Z,19.40
2023-05-23T07:55:56.847Z,19.37
2023-05-23T07:58:26.977Z,19.34
2023-05-23T08:00:54.112Z,19.29
2023-05-23T08:03:41.182Z,19.25
2023-05-23T08:06:14.502Z,19.24
2023-05-23T08:08:43.674Z,19.25
2023-05-23T08:11:30.362Z,19.25
2023-05-23T08:13:59.475Z,19.29
2023-05-23T08:16:37.604Z,19.35
2023-05-23T08:19:08.873Z,19.41
2023-05-23T08:21:36.577Z,19.43
2023-05-23T08:24:04.091Z,19.41
2023-05-23T08:26:34.921Z,19.38
2023-05-23T08:29:03.867Z,19.33
2023-05-23T08:31:33.636Z,19.28
2023-05-23T08:34:01.744Z,19.23
2023-05-23T08:36:29.966Z,19.24
2023-05-23T08:38:57.054Z,19.27
2023-05-23T08:41:30.886Z,19.31
2023-05-23T08:44:03.071Z,19.38
2023-05-23T08:46:44.377Z,19.43
2023-05-23T08:49:14.266Z,19.49
2023-05-23T08:51:44.017Z,19.51
2023-05-23T08:54:17.118Z,19.52
2023-05-23T08:56:44.969Z,19.91
2023-05-23T08:59:15.234Z,19.96
2023-05-23T09:01:46.106Z,19.89
2023-05-23T09:04:14.712Z,19.82
2023-05-23T09:06:57.334Z,19.75
2023-05-23T09:09:25.724Z,19.68
2023-05-23T09:11:55.484Z,19.58
2023-05-23T09:14:22.900Z,19.51
2023-05-23T09:17:04.227Z,19.45
2023-05-23T09:19:31.997Z,19.40
2023-05-23T09:22:09.056Z,19.39
2023-05-23T09:24:46.532Z,19.38
2023-05-23T09:27:14.245Z,19.40
2023-05-23T09:29:41.363Z,19.96
2023-05-23T09:32:13.576Z,20.05
2023-05-23T09:35:04.047Z,20.13
2023-05-23T09:37:33.852Z,20.20
2023-05-23T09:40:06.362Z,20.28
2023-05-23T09:42:34.269Z,20.37
2023-05-23T09:45:04.138Z,20.45
2023-05-23T09:47:32.355Z,20.51
2023-05-23T09:49:59.464Z,20.59
2023-05-23T09:52:26.931Z,20.78
2023-05-23T09:54:54.730Z,20.99
2023-05-23T09:57:23.506Z,20.97
2023-05-23T09:59:56.398Z,20.90
2023-05-23T10:02:55.165Z,20.78
2023-05-23T10:05:33.075Z,20.73
2023-05-23T10:08:05.027Z,20.71
2023-05-23T10:10:33.801Z,20.72
2023-05-23T10:13:04.992Z,20.73
2023-05-23T10:15:40.345Z,20.73
2023-05-23T10:18:19.257Z,20.80
2023-05-23T10:20:52.784Z,20.94
2023-05-23T10:23:21.190Z,21.07
2023-05-23T10:25:49.008Z,21.23
2023-05-23T10:28:16.636Z,21.41
2023-05-23T10:30:45.861Z,21.63
2023-05-23T10:33:16.966Z,21.90
2023-05-23T10:36:21.737Z,22.22
2023-05-23T10:38:56.275Z,22.75
2023-05-23T10:41:29.009Z,23.12
2023-05-23T10:44:15.811Z,23.57
2023-05-23T10:46:55.570Z,23.89
2023-05-23T10:49:37.679Z,23.97
2023-05-23T10:52:05.070Z,24.14
2023-05-23T10:54:50.242Z,24.87
2023-05-23T10:57:21.004Z,25.85
2023-05-23T10:59:51.082Z,26.93
2023-05-23T11:02:29.483Z,27.93
2023-05-23T11:05:19.844Z,29.23
2023-05-23T11:07:46.952Z,29.74
2023-05-23T11:10:14.510Z,29.70
2023-05-23T11:12:44.751Z,29.41
2023-05-23T11:15:17.571Z,29.00
2023-05-23T11:17:56.677Z,28.50
2023-05-23T11:20:28.338Z,28.04
2023-05-23T11:23:03.964Z,27.56
2023-05-23T11:25:48.902Z,27.08
2023-05-23T11:28:17.258Z,26.73
2023-05-23T11:30:48.014Z,26.40
2023-05-23T11:33:17.083Z,26.15
2023-05-23T11:35:47.942Z,25.95
2023-05-23T11:38:16.784Z,25.76
2023-05-23T11:40:46.664Z,25.58
2023-05-23T11:43:18.240Z,25.38
2023-05-23T11:45:48.538Z,25.22
2023-05-23T11:48:17.705Z,25.15
2023-05-23T11:50:47.859Z,25.16
2023-05-23T11:53:18.923Z,25.18
2023-05-23T11:55:58.453Z,25.15
2023-05-23T11:58:38.015Z,25.01
2023-05-23T12:01:08.685Z,24.82
2023-05-23T12:03:49.168Z,24.61
2023-05-23T12:06:18.991Z,24.46
2023-05-23T12:08:47.564Z,24.39
2023-05-23T12:11:15.085Z,24.36
2023-05-23T12:13:42.853Z,24.34
2023-05-23T12:16:11.186Z,24.30
2023-05-23T12:18:38.514Z,24.20
2023-05-23T12:21:08.309Z,24.11
2023-05-23T12:23:36.500Z,24.00
2023-05-23T12:26:08.042Z,23.98
2023-05-23T12:28:45.109Z,23.92
2023-05-23T12:31:16.044Z,23.89
2023-05-23T12:33:45.244Z,23.86
2023-05-23T12:36:12.870Z,23.79
2023-05-23T12:38:45.245Z,23.81
2023-05-23T12:41:20.346Z,23.90
2023-05-23T12:43:53.090Z,24.10
2023-05-23T12:46:25.094Z,24.32
2023-05-23T12:48:53.605Z,24.53
2023-05-23T12:51:21.722Z,24.63
2023-05-23T12:53:48.872Z,24.73
2023-05-23T12:56:16.000Z,24.87
2023-05-23T12:58:43.741Z,24.96
2023-05-23T13:01:11.265Z,25.03
2023-05-23T13:03:39.731Z,25.12
2023-05-23T13:06:10.866Z,25.24
2023-05-23T13:08:38.131Z,25.32
2023-05-23T13:11:05.635Z,25.35
2023-05-23T13:13:33.676Z,25.39
2023-05-23T13:16:00.876Z,25.38
2023-05-23T13:18:27.889Z,25.47
2023-05-23T13:20:55.008Z,25.56
2023-05-23T13:23:22.026Z,25.71
2023-05-23T13:25:51.135Z,25.85
2023-05-23T13:28:18.676Z,25.92
2023-05-23T13:30:47.334Z,25.92
2023-05-23T13:33:14.776Z,25.92
2023-05-23T13:35:42.040Z,25.95
2023-05-23T13:38:09.795Z,25.99
2023-05-23T13:40:36.941Z,26.05
2023-05-23T13:43:03.956Z,26.07
2023-05-23T13:45:31.057Z,26.05
2023-05-23T13:47:58.165Z,25.95
2023-05-23T13:50:25.219Z,26.27
2023-05-23T13:52:52.287Z,26.03
2023-05-23T13:55:19.326Z,25.79
2023-05-23T13:57:46.676Z,25.56
2023-05-23T14:00:14.660Z,25.38
2023-05-23T14:02:42.209Z,25.25
2023-05-23T14:05:09.785Z,25.18
2023-05-23T14:07:36.857Z,25.11
2023-05-23T14:10:05.097Z,25.06
2023-05-23T14:12:32.632Z,25.06
2023-05-23T14:14:59.621Z,25.11
2023-05-23T14:17:27.310Z,25.16
2023-05-23T14:19:54.310Z,25.23
2023-05-23T14:22:21.393Z,25.25
2023-05-23T14:24:48.613Z,25.22
2023-05-23T14:27:15.669Z,25.24
2023-05-23T14:29:46.352Z,25.27
2023-05-23T14:32:13.713Z,25.32
2023-05-23T14:34:41.434Z,25.36
2023-05-23T14:37:08.569Z,25.42
2023-05-23T14:39:36.069Z,25.50
2023-05-23T14:42:03.749Z,25.62
2023-05-23T14:44:31.010Z,25.76
2023-05-23T14:46:58.179Z,25.81
2023-05-23T14:49:25.179Z,25.88
2023-05-23T14:51:52.291Z,25.98
2023-05-23T14:54:19.933Z,26.12
2023-05-23T14:56:47.136Z,26.17
2023-05-23T14:59:15.113Z,26.21
2023-05-23T15:01:42.366Z,26.21
2023-05-23T15:04:10.171Z,26.21
2023-05-23T15:06:39.090Z,26.20
2023-05-23T15:09:07.423Z,26.18
2023-05-23T15:11:38.959Z,26.12
2023-05-23T15:14:06.291Z,26.05
2023-05-23T15:16:35.041Z,25.94
2023-05-23T15:19:02.491Z,25.81
2023-05-23T15:21:29.856Z,25.69
2023-05-23T15:23:57.801Z,25.58
2023-05-23T15:26:25.515Z,25.49
2023-05-23T15:28:52.508Z,25.37
2023-05-23T15:31:19.717Z,25.24
2023-05-23T15:33:47.784Z,25.15
2023-05-23T15:36:14.983Z,25.15
2023-05-23T15:38:42.305Z,25.17
2023-05-23T15:41:10.470Z,25.23
2023-05-23T15:43:37.764Z,25.26
2023-05-23T15:46:05.456Z,25.30
2023-05-23T15:48:32.594Z,25.34
2023-05-23T15:50:59.595Z,25.36
2023-05-23T15:53:26.688Z,25.31
2023-05-23T15:55:53.956Z,25.19
2023-05-23T15:58:20.992Z,25.04
2023-05-23T16:00:47.983Z,24.87
2023-05-23T16:03:14.968Z,24.73
2023-05-23T16:05:42.203Z,24.62
2023-05-23T16:08:09.486Z,24.52
2023-05-23T16:10:36.473Z,24.41
2023-05-23T16:13:04.024Z,24.35
2023-05-23T16:15:31.183Z,24.27
2023-05-23T16:17:58.593Z,24.16
2023-05-23T16:20:25.816Z,23.99
2023-05-23T16:22:53.010Z,23.82
2023-05-23T16:25:20.069Z,23.67
2023-05-23T16:27:47.071Z,23.51
2023-05-23T16:30:14.269Z,23.32
2023-05-23T16:32:41.326Z,23.16
2023-05-23T16:35:10.166Z,23.01
2023-05-23T16:37:38.463Z,22.83
2023-05-23T16:40:07.034Z,22.65
2023-05-23T16:42:34.022Z,22.49
2023-05-23T16:45:01.172Z,22.35
2023-05-23T16:47:28.253Z,22.23
2023-05-23T16:49:55.335Z,22.07
2023-05-23T16:52:22.522Z,21.93
2023-05-23T16:54:49.662Z,21.82
2023-05-23T16:57:16.698Z,21.73
2023-05-23T16:59:43.728Z,21.68
2023-05-23T17:02:14.834Z,21.60
2023-05-23T17:04:41.987Z,21.49
2023-05-23T17:07:09.477Z,21.41
2023-05-23T17:09:37.134Z,21.33
2023-05-23T17:12:04.597Z,21.25
2023-05-23T17:14:31.904Z,21.16
2023-05-23T17:16:58.935Z,21.09
2023-05-23T17:19:27.048Z,21.06
2023-05-23T17:21:54.067Z,21.03
2023-05-23T17:24:21.077Z,20.98
2023-05-23T17:26:48.134Z,20.87
2023-05-23T17:29:17.174Z,20.80
2023-05-23T17:31:44.468Z,20.72
2023-05-23T17:34:12.592Z,20.57
2023-05-23T17:36:39.558Z,20.50
2023-05-23T17:39:06.943Z,20.43
2023-05-23T17:41:33.964Z,20.38
2023-05-23T17:44:02.525Z,20.34
2023-05-23T17:46:29.786Z,20.27
2023-05-23T17:48:56.824Z,20.22
2023-05-23T17:51:23.928Z,20.12
2023-05-23T17:53:53.567Z,20.01
2023-05-23T17:56:23.202Z,19.87
2023-05-23T17:58:50.317Z,19.72
2023-05-23T18:01:17.519Z,19.59
2023-05-23T18:03:44.832Z,19.47
2023-05-23T18:06:12.086Z,19.39
2023-05-23T18:08:40.810Z,19.34
2023-05-23T18:11:07.876Z,19.35
2023-05-23T18:13:34.882Z,19.31
2023-05-23T18:16:02.109Z,19.24
2023-05-23T18:18:29.489Z,19.20
2023-05-23T18:20:56.850Z,19.14
2023-05-23T18:23:23.890Z,19.08
2023-05-23T18:25:50.897Z,19.03
2023-05-23T18:28:17.939Z,18.99
2023-05-23T18:30:45.184Z,18.94
2023-05-23T18:33:12.483Z,18.89
2023-05-23T18:35:39.853Z,18.83
2023-05-23T18:38:07.343Z,18.75
2023-05-23T18:40:34.375Z,18.65
2023-05-23T18:43:01.413Z,18.59
2023-05-23T18:45:28.600Z,18.52
2023-05-23T18:47:55.977Z,18.44
2023-05-23T18:50:23.699Z,18.35
2023-05-23T18:52:50.778Z,18.25
2023-05-23T18:55:17.952Z,18.16
2023-05-23T18:57:45.052Z,18.01
2023-05-23T19:00:13.114Z,17.92
2023-05-23T19:02:44.225Z,17.82
2023-05-23T19:05:12.681Z,17.73
2023-05-23T19:07:39.895Z,17.62
2023-05-23T19:10:07.589Z,17.54
2023-05-23T19:12:34.712Z,17.44
2023-05-23T19:15:01.856Z,17.35
2023-05-23T19:17:30.926Z,17.30
2023-05-23T19:19:58.046Z,17.23
2023-05-23T19:22:26.548Z,17.17
2023-05-23T19:24:55.034Z,17.12
2023-05-23T19:27:22.050Z,17.04
2023-05-23T19:29:49.454Z,16.98
2023-05-23T19:32:17.169Z,16.92
2023-05-23T19:34:44.421Z,16.84
2023-05-23T19:37:11.567Z,16.75
2023-05-23T19:39:38.640Z,16.70
2023-05-23T19:42:06.053Z,16.64
2023-05-23T19:44:33.133Z,16.53
2023-05-23T19:47:00.369Z,16.45
2023-05-23T19:49:27.504Z,16.37
2023-05-23T19:51:54.567Z,16.29
2023-05-23T19:54:22.974Z,16.22
2023-05-23T19:56:50.340Z,16.13
2023-05-23T19:59:17.391Z,16.08
2023-05-23T20:01:44.439Z,16.03
2023-05-23T20:04:12.948Z,15.97
2023-05-23T20:06:40.129Z,15.93
2023-05-23T20:09:07.615Z,15.88
2023-05-23T20:11:35.331Z,15.83
2023-05-23T20:14:02.319Z,15.78
2023-05-23T20:16:29.382Z,15.73
2023-05-23T20:18:56.493Z,15.69
2023-05-23T20:21:23.517Z,15.65
2023-05-23T20:23:50.494Z,15.62
2023-05-23T20:26:18.489Z,15.59
2023-05-23T20:28:46.028Z,15.55
2023-05-23T20:31:13.244Z,15.56
2023-05-23T20:33:40.329Z,15.53
2023-05-23T20:36:07.695Z,15.50
2023-05-23T20:38:35.370Z,15.47
2023-05-23T20:41:07.419Z,15.43
2023-05-23T20:43:37.264Z,15.41
2023-05-23T20:46:07.027Z,15.36
2023-05-23T20:48:34.066Z,15.33
2023-05-23T20:51:01.866Z,15.31
2023-05-23T20:53:31.296Z,15.29
2023-05-23T20:55:58.387Z,15.27
2023-05-23T20:58:25.389Z,15.24
2023-05-23T21:00:52.516Z,15.20
2023-05-23T21:03:20.473Z,15.18
2023-05-23T21:05:47.599Z,15.13
2023-05-23T21:08:14.653Z,15.09
2023-05-23T21:10:42.019Z,15.05
2023-05-23T21:13:09.338Z,15.00
2023-05-23T21:15:36.366Z,14.95
2023-05-23T21:18:03.486Z,14.92
2023-05-23T21:20:30.658Z,14.88
2023-05-23T21:22:57.647Z,14.84
2023-05-23T21:25:24.965Z,14.81
2023-05-23T21:27:52.388Z,14.79
2023-05-23T21:30:19.722Z,14.75
2023-05-23T21:32:47.073Z,14.72
2023-05-23T21:35:14.086Z,14.69
2023-05-23T21:37:41.133Z,14.65
2023-05-23T21:40:09.536Z,14.58
2023-05-23T21:42:36.558Z,14.53
2023-05-23T21:45:04.029Z,14.48
2023-05-23T21:47:31.261Z,14.43
2023-05-23T21:49:58.389Z,14.38
2023-05-23T21:52:25.420Z,14.33
2023-05-23T21:54:52.744Z,14.29
2023-05-23T21:57:20.421Z,14.23
2023-05-23T21:59:47.507Z,14.20
2023-05-23T22:02:14.514Z,14.16
2023-05-23T22:04:41.563Z,14.11
2023-05-23T22:07:08.574Z,14.06
2023-05-23T22:09:35.723Z,14.03
2023-05-23T22:12:02.903Z,13.99
2023-05-23T22:14:30.021Z,13.96
2023-05-23T22:16:59.040Z,13.92
2023-05-23T22:19:26.218Z,13.88
2023-05-23T22:21:53.332Z,13.86
2023-05-23T22:24:20.555Z,13.81
2023-05-23T22:26:47.610Z,13.80
2023-05-23T22:29:14.659Z,13.74
2023-05-23T22:31:41.871Z,13.70
2023-05-23T22:34:08.866Z,13.65
2023-05-23T22:36:36.466Z,13.58
2023-05-23T22:39:05.315Z,13.57
2023-05-23T22:41:32.474Z,13.53
2023-05-23T22:43:59.558Z,13.50
2023-05-23T22:46:26.668Z,13.44
2023-05-23T22:48:55.218Z,13.40
2023-05-23T22:51:22.582Z,13.35
2023-05-23T22:53:49.571Z,13.34
2023-05-23T22:56:17.486Z,13.28
2023-05-23T22:58:44.522Z,13.24
2023-05-23T23:01:11.622Z,13.24
2023-05-23T23:03:38.661Z,13.21
2023-05-23T23:06:06.220Z,13.18
2023-05-23T23:08:34.008Z,13.15
2023-05-23T23:11:01.114Z,13.12
2023-05-23T23:13:28.312Z,13.09
2023-05-23T23:15:55.467Z,13.05
2023-05-23T23:18:22.458Z,13.01
2023-05-23T23:20:49.507Z,12.97
2023-05-23T23:23:16.889Z,12.95
2023-05-23T23:25:49.869Z,12.94
2023-05-23T23:28:17.723Z,12.90
2023-05-23T23:30:44.947Z,12.89
2023-05-23T23:33:12.676Z,12.85
2023-05-23T23:35:40.009Z,12.83
2023-05-23T23:38:07.196Z,12.79
2023-05-23T23:40:34.204Z,12.77
2023-05-23T23:43:01.254Z,12.73
2023-05-23T23:45:28.240Z,12.70
2023-05-23T23:47:55.460Z,12.66
2023-05-23T23:50:22.525Z,12.64
2023-05-23T23:52:49.912Z,12.61
2023-05-23T23:55:24.714Z,12.58
2023-05-23T23:57:51.769Z,12.58
